Terminal Aerodrome Forecast
Issued by NWS

Current Version | Previous Version | Text Only | Print | Product List | Glossary On
Versions: 1 2 3 4 5 6 7 8 9 10 11 12 13 14 15 16 17
513
FTUS41 KILN 291319 AAA
TAFLCK
TAF AMD
KLCK 291319Z 2913/3012 05009KT P6SM BKN025
     FM291700 06010KT P6SM BKN050
     FM292300 07009KT P6SM BKN250=

USA.gov is the U.S. government's official web portal to all federal, state and local government web resources and services.